sensor_id;sensor_type;location;lat;lon;timestamp;P1;P4;P2;P0;N10;N4;N25;N1;N05;TS
79355;SPS30;68825;51.978;5.654;2023-09-19T00:01:08;2.0;2.0;1.9;1.7;;;;1.0;49.0;
79355;SPS30;68825;51.978;5.654;2023-09-19T00:03:38;2.4;2.3;2.2;2.0;;;;1.0;54.0;
79355;SPS30;68825;51.978;5.654;2023-09-19T00:06:08;1.9;1.9;1.8;1.7;;;;1.0;52.0;
79355;SPS30;68825;51.978;5.654;2023-09-19T00:08:39;2.4;2.3;2.2;2.0;;;;1.0;51.0;
79355;SPS30;68825;51.978;5.654;2023-09-19T00:11:10;2.1;2.1;2.0;1.9;;;;1.0;53.0;
79355;SPS30;68825;51.978;5.654;2023-09-19T00:13:39;2.5;2.4;2.4;2.2;;;;1.0;53.0;
79355;SPS30;68825;51.978;5.654;2023-09-19T00:16:09;2.5;2.5;2.3;2.1;;;;1.0;48.0;
79355;SPS30;68825;51.978;5.654;2023-09-19T00:18:40;2.5;2.4;2.3;2.1;;;;1.0;46.0;
79355;SPS30;68825;51.978;5.654;2023-09-19T00:21:09;2.3;2.3;2.2;1.9;;;;1.0;51.0;
79355;SPS30;68825;51.978;5.654;2023-09-19T00:23:38;2.0;1.9;1.8;1.6;;;;1.0;52.0;
79355;SPS30;68825;51.978;5.654;2023-09-19T00:26:08;2.5;2.5;2.3;2.1;;;;1.0;52.0;
79355;SPS30;68825;51.978;5.654;2023-09-19T00:28:36;2.8;2.8;2.6;2.3;;;;1.0;51.0;
79355;SPS30;68825;51.978;5.654;2023-09-19T00:31:05;2.5;2.4;2.3;2.0;;;;1.0;60.0;
79355;SPS30;68825;51.978;5.654;2023-09-19T00:33:36;2.4;2.3;2.2;1.9;;;;1.0;54.0;
79355;SPS30;68825;51.978;5.654;2023-09-19T00:36:05;2.3;2.3;2.1;1.9;;;;1.0;52.0;
79355;SPS30;68825;51.978;5.654;2023-09-19T00:38:33;2.5;2.5;2.3;2.1;;;;1.0;52.0;
79355;SPS30;68825;51.978;5.654;2023-09-19T00:41:04;3.0;2.9;2.7;2.3;;;;1.0;48.0;
79355;SPS30;68825;51.978;5.654;2023-09-19T00:43:35;2.3;2.2;2.0;1.7;;;;1.0;55.0;
79355;SPS30;68825;51.978;5.654;2023-09-19T00:46:06;2.7;2.6;2.4;2.1;;;;1.0;55.0;
79355;SPS30;68825;51.978;5.654;2023-09-19T00:48:38;2.3;2.3;2.1;1.8;;;;1.0;58.0;
79355;SPS30;68825;51.978;5.654;2023-09-19T00:51:10;2.7;2.6;2.5;2.1;;;;1.0;65.0;
79355;SPS30;68825;51.978;5.654;2023-09-19T00:53:44;3.1;3.0;2.8;2.4;;;;1.0;62.0;
79355;SPS30;68825;51.978;5.654;2023-09-19T00:56:15;3.2;3.1;2.9;2.5;;;;1.0;60.0;
79355;SPS30;68825;51.978;5.654;2023-09-19T00:58:44;3.1;3.0;2.8;2.5;;;;1.0;56.0;
79355;SPS30;68825;51.978;5.654;2023-09-19T01:01:13;3.5;3.4;3.2;2.9;;;;1.0;56.0;
79355;SPS30;68825;51.978;5.654;2023-09-19T01:03:43;3.0;2.9;2.8;2.5;;;;1.0;69.0;
79355;SPS30;68825;51.978;5.654;2023-09-19T01:06:13;2.8;2.8;2.6;2.3;;;;1.0;61.0;
79355;SPS30;68825;51.978;5.654;2023-09-19T01:08:41;2.9;2.8;2.7;2.4;;;;1.0;58.0;
79355;SPS30;68825;51.978;5.654;2023-09-19T01:11:12;3.0;3.0;2.8;2.6;;;;1.0;60.0;
79355;SPS30;68825;51.978;5.654;2023-09-19T01:13:47;3.6;3.5;3.3;2.9;;;;1.0;59.0;
79355;SPS30;68825;51.978;5.654;2023-09-19T01:16:32;3.4;3.3;3.1;2.7;;;;1.0;59.0;
79355;SPS30;68825;51.978;5.654;2023-09-19T01:19:12;3.4;3.3;3.1;2.8;;;;1.0;58.0;
79355;SPS30;68825;51.978;5.654;2023-09-19T01:22:11;3.7;3.6;3.4;2.9;;;;1.0;60.0;
79355;SPS30;68825;51.978;5.654;2023-09-19T01:25:12;3.1;3.0;2.8;2.5;;;;1.0;62.0;
79355;SPS30;68825;51.978;5.654;2023-09-19T01:27:47;3.1;3.0;2.8;2.4;;;;1.0;62.0;
79355;SPS30;68825;51.978;5.654;2023-09-19T01:30:42;3.1;3.0;2.7;2.3;;;;1.0;60.0;
79355;SPS30;68825;51.978;5.654;2023-09-19T01:33:12;3.3;3.1;2.8;2.2;;;;1.0;57.0;
79355;SPS30;68825;51.978;5.654;2023-09-19T01:35:43;3.5;3.3;3.0;2.4;;;;1.0;59.0;
79355;SPS30;68825;51.978;5.654;2023-09-19T01:38:13;3.7;3.5;3.1;2.5;;;;1.0;58.0;
79355;SPS30;68825;51.978;5.654;2023-09-19T01:40:48;4.7;4.4;3.9;3.0;;;;1.0;53.0;
79355;SPS30;68825;51.978;5.654;2023-09-19T01:43:31;4.1;3.8;3.4;2.7;;;;1.0;52.0;
79355;SPS30;68825;51.978;5.654;2023-09-19T01:46:07;3.2;3.0;2.7;2.1;;;;1.0;53.0;
79355;SPS30;68825;51.978;5.654;2023-09-19T01:48:44;3.3;3.2;2.9;2.4;;;;1.0;47.0;
79355;SPS30;68825;51.978;5.654;2023-09-19T01:51:21;3.4;3.2;2.8;2.2;;;;1.0;42.0;
79355;SPS30;68825;51.978;5.654;2023-09-19T01:54:01;4.4;4.2;3.6;2.9;;;;1.0;40.0;
79355;SPS30;68825;51.978;5.654;2023-09-19T01:56:40;3.9;3.7;3.2;2.6;;;;2.0;39.0;
79355;SPS30;68825;51.978;5.654;2023-09-19T01:59:17;3.3;3.2;2.8;2.3;;;;2.0;40.0;
79355;SPS30;68825;51.978;5.654;2023-09-19T02:01:53;3.8;3.6;3.2;2.5;;;;2.0;40.0;
79355;SPS30;68825;51.978;5.654;2023-09-19T02:04:24;3.8;3.6;3.1;2.5;;;;2.0;41.0;
79355;SPS30;68825;51.978;5.654;2023-09-19T02:06:53;4.5;4.2;3.6;2.7;;;;2.0;42.0;
79355;SPS30;68825;51.978;5.654;2023-09-19T02:09:23;4.6;4.3;3.7;2.8;;;;2.0;42.0;
79355;SPS30;68825;51.978;5.654;2023-09-19T02:11:51;4.0;3.8;3.3;2.6;;;;2.0;43.0;
79355;SPS30;68825;51.978;5.654;2023-09-19T02:14:22;3.6;3.4;3.0;2.4;;;;2.0;42.0;
79355;SPS30;68825;51.978;5.654;2023-09-19T02:16:50;3.7;3.6;3.2;2.6;;;;2.0;48.0;
79355;SPS30;68825;51.978;5.654;2023-09-19T02:19:20;3.6;3.4;3.0;2.4;;;;2.0;48.0;
79355;SPS30;68825;51.978;5.654;2023-09-19T02:21:49;3.8;3.6;3.2;2.5;;;;2.0;47.0;
79355;SPS30;68825;51.978;5.654;2023-09-19T02:24:18;5.2;4.9;4.3;3.4;;;;2.0;47.0;
79355;SPS30;68825;51.978;5.654;2023-09-19T02:26:47;3.7;3.5;3.1;2.4;;;;2.0;44.0;
79355;SPS30;68825;51.978;5.654;2023-09-19T02:29:15;4.7;4.4;3.8;2.9;;;;2.0;46.0;
79355;SPS30;68825;51.978;5.654;2023-09-19T02:31:44;4.3;4.1;3.5;2.8;;;;2.0;42.0;
79355;SPS30;68825;51.978;5.654;2023-09-19T02:34:14;4.4;4.2;3.7;3.0;;;;2.0;40.0;
79355;SPS30;68825;51.978;5.654;2023-09-19T02:36:45;4.0;3.7;3.2;2.5;;;;2.0;40.0;
79355;SPS30;68825;51.978;5.654;2023-09-19T02:39:14;4.0;3.7;3.1;2.3;;;;2.0;42.0;
79355;SPS30;68825;51.978;5.654;2023-09-19T02:41:42;5.3;4.9;4.1;3.0;;;;2.0;43.0;
79355;SPS30;68825;51.978;5.654;2023-09-19T02:44:11;3.8;3.6;3.1;2.4;;;;2.0;41.0;
79355;SPS30;68825;51.978;5.654;2023-09-19T02:46:40;4.2;4.0;3.5;2.8;;;;2.0;39.0;
79355;SPS30;68825;51.978;5.654;2023-09-19T02:49:09;3.6;3.4;2.9;2.3;;;;2.0;38.0;
79355;SPS30;68825;51.978;5.654;2023-09-19T02:51:40;3.5;3.3;2.9;2.3;;;;2.0;39.0;
79355;SPS30;68825;51.978;5.654;2023-09-19T02:54:10;4.2;3.9;3.4;2.6;;;;2.0;38.0;
79355;SPS30;68825;51.978;5.654;2023-09-19T02:56:41;3.7;3.4;2.9;2.2;;;;2.0;36.0;
79355;SPS30;68825;51.978;5.654;2023-09-19T02:59:10;4.8;4.5;3.8;2.9;;;;2.0;34.0;
79355;SPS30;68825;51.978;5.654;2023-09-19T03:01:39;4.9;4.5;3.8;2.8;;;;2.0;31.0;
79355;SPS30;68825;51.978;5.654;2023-09-19T03:04:07;5.1;4.8;4.1;3.0;;;;2.0;31.0;
79355;SPS30;68825;51.978;5.654;2023-09-19T03:06:37;4.8;4.4;3.7;2.6;;;;2.0;29.0;
79355;SPS30;68825;51.978;5.654;2023-09-19T03:09:06;4.7;4.4;3.7;2.7;;;;2.0;29.0;
79355;SPS30;68825;51.978;5.654;2023-09-19T03:11:39;3.9;3.6;3.1;2.4;;;;2.0;30.0;
79355;SPS30;68825;51.978;5.654;2023-09-19T03:14:08;4.6;4.3;3.7;2.7;;;;2.0;34.0;
79355;SPS30;68825;51.978;5.654;2023-09-19T03:16:38;4.5;4.2;3.6;2.6;;;;2.0;33.0;
79355;SPS30;68825;51.978;5.654;2023-09-19T03:19:08;4.1;3.8;3.2;2.4;;;;2.0;34.0;
79355;SPS30;68825;51.978;5.654;2023-09-19T03:21:38;3.4;3.2;2.7;2.0;;;;2.0;33.0;
79355;SPS30;68825;51.978;5.654;2023-09-19T03:24:07;4.7;4.4;3.8;2.9;;;;2.0;33.0;
79355;SPS30;68825;51.978;5.654;2023-09-19T03:26:35;3.2;3.1;2.7;2.1;;;;2.0;30.0;
79355;SPS30;68825;51.978;5.654;2023-09-19T03:29:05;3.7;3.5;3.0;2.3;;;;2.0;30.0;
79355;SPS30;68825;51.978;5.654;2023-09-19T03:31:36;4.7;4.4;3.7;2.7;;;;2.0;31.0;
79355;SPS30;68825;51.978;5.654;2023-09-19T03:34:05;4.5;4.2;3.5;2.6;;;;2.0;31.0;
79355;SPS30;68825;51.978;5.654;2023-09-19T03:36:34;4.1;3.8;3.2;2.4;;;;2.0;30.0;
79355;SPS30;68825;51.978;5.654;2023-09-19T03:39:02;4.7;4.3;3.6;2.6;;;;2.0;31.0;
79355;SPS30;68825;51.978;5.654;2023-09-19T03:41:34;5.2;4.8;4.1;3.0;;;;2.0;33.0;
79355;SPS30;68825;51.978;5.654;2023-09-19T03:44:05;4.7;4.4;3.7;2.8;;;;2.0;35.0;
79355;SPS30;68825;51.978;5.654;2023-09-19T03:46:34;4.6;4.3;3.6;2.7;;;;2.0;36.0;
79355;SPS30;68825;51.978;5.654;2023-09-19T03:49:03;4.9;4.6;3.9;3.0;;;;2.0;36.0;
79355;SPS30;68825;51.978;5.654;2023-09-19T03:51:32;4.8;4.5;3.9;3.0;;;;2.0;35.0;
79355;SPS30;68825;51.978;5.654;2023-09-19T03:54:02;4.3;4.1;3.5;2.7;;;;2.0;35.0;
79355;SPS30;68825;51.978;5.654;2023-09-19T03:56:32;4.1;3.9;3.3;2.6;;;;2.0;36.0;
79355;SPS30;68825;51.978;5.654;2023-09-19T03:59:04;4.0;3.8;3.3;2.6;;;;2.0;35.0;
79355;SPS30;68825;51.978;5.654;2023-09-19T04:01:34;3.8;3.6;3.1;2.5;;;;2.0;35.0;
79355;SPS30;68825;51.978;5.654;2023-09-19T04:04:04;3.9;3.7;3.3;2.6;;;;2.0;36.0;
79355;SPS30;68825;51.978;5.654;2023-09-19T04:06:36;4.2;4.0;3.6;2.9;;;;2.0;39.0;
79355;SPS30;68825;51.978;5.654;2023-09-19T04:09:05;3.9;3.7;3.2;2.5;;;;2.0;39.0;
79355;SPS30;68825;51.978;5.654;2023-09-19T04:11:35;4.1;3.8;3.4;2.7;;;;2.0;36.0;
79355;SPS30;68825;51.978;5.654;2023-09-19T04:14:04;4.2;4.0;3.5;2.8;;;;2.0;36.0;
79355;SPS30;68825;51.978;5.654;2023-09-19T04:16:37;3.5;3.3;3.0;2.3;;;;2.0;36.0;
79355;SPS30;68825;51.978;5.654;2023-09-19T04:19:06;3.3;3.1;2.8;2.2;;;;2.0;37.0;
79355;SPS30;68825;51.978;5.654;2023-09-19T04:21:34;4.1;3.9;3.5;2.8;;;;2.0;36.0;
79355;SPS30;68825;51.978;5.654;2023-09-19T04:24:03;3.8;3.6;3.3;2.6;;;;2.0;36.0;
79355;SPS30;68825;51.978;5.654;2023-09-19T04:26:32;3.3;3.1;2.7;2.1;;;;2.0;36.0;
79355;SPS30;68825;51.978;5.654;2023-09-19T04:29:01;4.5;4.2;3.7;2.9;;;;2.0;38.0;
79355;SPS30;68825;51.978;5.654;2023-09-19T04:31:30;3.5;3.3;2.9;2.3;;;;2.0;40.0;
79355;SPS30;68825;51.978;5.654;2023-09-19T04:33:59;3.7;3.5;3.2;2.6;;;;2.0;41.0;
79355;SPS30;68825;51.978;5.654;2023-09-19T04:36:31;3.6;3.4;3.0;2.4;;;;2.0;40.0;
79355;SPS30;68825;51.978;5.654;2023-09-19T04:39:01;3.3;3.2;2.8;2.2;;;;2.0;41.0;
79355;SPS30;68825;51.978;5.654;2023-09-19T04:41:31;3.8;3.6;3.1;2.5;;;;2.0;38.0;
79355;SPS30;68825;51.978;5.654;2023-09-19T04:44:00;3.7;3.5;3.1;2.5;;;;2.0;40.0;
79355;SPS30;68825;51.978;5.654;2023-09-19T04:46:29;4.0;3.8;3.4;2.7;;;;2.0;38.0;
79355;SPS30;68825;51.978;5.654;2023-09-19T04:48:58;3.1;3.0;2.6;2.1;;;;2.0;38.0;
79355;SPS30;68825;51.978;5.654;2023-09-19T04:51:27;3.1;3.0;2.6;2.0;;;;2.0;39.0;
79355;SPS30;68825;51.978;5.654;2023-09-19T04:54:00;4.3;4.0;3.5;2.7;;;;2.0;38.0;
79355;SPS30;68825;51.978;5.654;2023-09-19T04:56:30;3.9;3.7;3.2;2.4;;;;2.0;39.0;
79355;SPS30;68825;51.978;5.654;2023-09-19T04:59:01;3.9;3.7;3.2;2.5;;;;2.0;39.0;
79355;SPS30;68825;51.978;5.654;2023-09-19T05:01:31;4.0;3.8;3.3;2.6;;;;2.0;39.0;
79355;SPS30;68825;51.978;5.654;2023-09-19T05:04:01;3.6;3.4;2.9;2.2;;;;2.0;38.0;
79355;SPS30;68825;51.978;5.654;2023-09-19T05:06:31;4.2;3.9;3.4;2.6;;;;2.0;38.0;
79355;SPS30;68825;51.978;5.654;2023-09-19T05:09:01;4.6;4.3;3.7;2.8;;;;2.0;38.0;
79355;SPS30;68825;51.978;5.654;2023-09-19T05:11:31;3.6;3.4;2.9;2.2;;;;2.0;39.0;
79355;SPS30;68825;51.978;5.654;2023-09-19T05:14:00;3.4;3.2;2.7;2.1;;;;2.0;43.0;
79355;SPS30;68825;51.978;5.654;2023-09-19T05:16:30;3.3;3.2;2.7;2.1;;;;2.0;43.0;
79355;SPS30;68825;51.978;5.654;2023-09-19T05:18:59;3.7;3.5;3.1;2.5;;;;2.0;46.0;
79355;SPS30;68825;51.978;5.654;2023-09-19T05:21:28;4.2;3.9;3.4;2.6;;;;2.0;48.0;
79355;SPS30;68825;51.978;5.654;2023-09-19T05:23:59;3.9;3.7;3.2;2.4;;;;2.0;48.0;
79355;SPS30;68825;51.978;5.654;2023-09-19T05:26:28;4.1;3.8;3.3;2.6;;;;2.0;48.0;
79355;SPS30;68825;51.978;5.654;2023-09-19T05:28:56;4.5;4.3;3.7;2.8;;;;2.0;48.0;
79355;SPS30;68825;51.978;5.654;2023-09-19T05:31:25;3.3;3.1;2.7;2.1;;;;2.0;55.0;
79355;SPS30;68825;51.978;5.654;2023-09-19T05:33:55;3.2;3.0;2.6;2.1;;;;2.0;54.0;
79355;SPS30;68825;51.978;5.654;2023-09-19T05:36:27;3.8;3.6;3.1;2.4;;;;2.0;53.0;
79355;SPS30;68825;51.978;5.654;2023-09-19T05:38:56;4.0;3.8;3.3;2.6;;;;2.0;52.0;
79355;SPS30;68825;51.978;5.654;2023-09-19T05:41:25;3.9;3.7;3.3;2.6;;;;2.0;52.0;
79355;SPS30;68825;51.978;5.654;2023-09-19T05:43:54;3.6;3.4;2.9;2.3;;;;2.0;48.0;
79355;SPS30;68825;51.978;5.654;2023-09-19T05:46:25;3.8;3.6;3.1;2.4;;;;2.0;48.0;
79355;SPS30;68825;51.978;5.654;2023-09-19T05:48:56;4.7;4.4;3.8;2.9;;;;2.0;48.0;
79355;SPS30;68825;51.978;5.654;2023-09-19T05:51:24;4.0;3.8;3.3;2.7;;;;2.0;51.0;
79355;SPS30;68825;51.978;5.654;2023-09-19T05:53:54;3.6;3.4;3.0;2.3;;;;2.0;51.0;
79355;SPS30;68825;51.978;5.654;2023-09-19T05:56:25;3.5;3.3;2.9;2.3;;;;2.0;51.0;
79355;SPS30;68825;51.978;5.654;2023-09-19T05:58:54;5.0;4.7;4.0;3.0;;;;2.0;49.0;
79355;SPS30;68825;51.978;5.654;2023-09-19T06:01:22;4.0;3.8;3.2;2.5;;;;2.0;47.0;
79355;SPS30;68825;51.978;5.654;2023-09-19T06:03:51;3.0;2.9;2.5;2.0;;;;2.0;52.0;
79355;SPS30;68825;51.978;5.654;2023-09-19T06:06:21;3.4;3.2;2.8;2.3;;;;2.0;58.0;
79355;SPS30;68825;51.978;5.654;2023-09-19T06:08:50;4.2;3.9;3.3;2.5;;;;2.0;57.0;
79355;SPS30;68825;51.978;5.654;2023-09-19T06:11:21;3.9;3.6;3.1;2.4;;;;2.0;55.0;
79355;SPS30;68825;51.978;5.654;2023-09-19T06:13:52;4.4;4.1;3.5;2.6;;;;2.0;51.0;
79355;SPS30;68825;51.978;5.654;2023-09-19T06:16:22;4.4;4.1;3.6;2.8;;;;2.0;53.0;
79355;SPS30;68825;51.978;5.654;2023-09-19T06:18:52;3.7;3.5;3.0;2.3;;;;2.0;57.0;
79355;SPS30;68825;51.978;5.654;2023-09-19T06:21:21;4.1;3.8;3.2;2.3;;;;2.0;55.0;
79355;SPS30;68825;51.978;5.654;2023-09-19T06:23:51;4.3;4.0;3.4;2.5;;;;2.0;56.0;
79355;SPS30;68825;51.978;5.654;2023-09-19T06:26:20;3.8;3.5;3.0;2.2;;;;2.0;55.0;
79355;SPS30;68825;51.978;5.654;2023-09-19T06:28:49;3.7;3.4;2.9;2.2;;;;2.0;60.0;
79355;SPS30;68825;51.978;5.654;2023-09-19T06:31:18;4.8;4.5;3.8;2.7;;;;2.0;62.0;
79355;SPS30;68825;51.978;5.654;2023-09-19T06:33:49;3.6;3.4;2.8;2.0;;;;2.0;60.0;
79355;SPS30;68825;51.978;5.654;2023-09-19T06:36:19;4.1;3.8;3.3;2.4;;;;2.0;60.0;
79355;SPS30;68825;51.978;5.654;2023-09-19T06:38:50;4.3;4.0;3.5;2.6;;;;2.0;59.0;
79355;SPS30;68825;51.978;5.654;2023-09-19T06:41:19;4.3;4.1;3.5;2.7;;;;2.0;61.0;
79355;SPS30;68825;51.978;5.654;2023-09-19T06:43:51;3.0;2.8;2.4;1.8;;;;2.0;63.0;
79355;SPS30;68825;51.978;5.654;2023-09-19T06:46:20;4.3;4.1;3.4;2.5;;;;2.0;71.0;
79355;SPS30;68825;51.978;5.654;2023-09-19T06:48:49;5.1;4.8;4.1;3.0;;;;2.0;70.0;
79355;SPS30;68825;51.978;5.654;2023-09-19T06:51:19;3.5;3.3;2.9;2.2;;;;2.0;68.0;
79355;SPS30;68825;51.978;5.654;2023-09-19T06:53:49;3.4;3.2;2.8;2.1;;;;2.0;66.0;
79355;SPS30;68825;51.978;5.654;2023-09-19T06:56:20;4.1;3.9;3.3;2.5;;;;2.0;63.0;
79355;SPS30;68825;51.978;5.654;2023-09-19T06:58:51;4.3;4.1;3.5;2.6;;;;2.0;64.0;
79355;SPS30;68825;51.978;5.654;2023-09-19T07:01:19;3.6;3.4;3.0;2.3;;;;2.0;65.0;
79355;SPS30;68825;51.978;5.654;2023-09-19T07:03:48;4.4;4.1;3.6;2.8;;;;2.0;63.0;
79355;SPS30;68825;51.978;5.654;2023-09-19T07:06:16;4.8;4.5;3.7;2.7;;;;2.0;62.0;
79355;SPS30;68825;51.978;5.654;2023-09-19T07:08:45;4.3;4.0;3.4;2.5;;;;2.0;67.0;
79355;SPS30;68825;51.978;5.654;2023-09-19T07:11:15;4.1;3.8;3.3;2.5;;;;2.0;69.0;
79355;SPS30;68825;51.978;5.654;2023-09-19T07:13:44;4.3;4.0;3.3;2.4;;;;2.0;63.0;
79355;SPS30;68825;51.978;5.654;2023-09-19T07:16:13;4.8;4.4;3.6;2.5;;;;2.0;62.0;
79355;SPS30;68825;51.978;5.654;2023-09-19T07:18:47;5.5;5.0;4.0;2.6;;;;2.0;61.0;
79355;SPS30;68825;51.978;5.654;2023-09-19T07:21:15;5.6;5.1;4.2;2.9;;;;2.0;60.0;
79355;SPS30;68825;51.978;5.654;2023-09-19T07:23:44;4.0;3.7;3.1;2.2;;;;2.0;60.0;
79355;SPS30;68825;51.978;5.654;2023-09-19T07:26:12;4.2;3.9;3.2;2.3;;;;2.0;59.0;
79355;SPS30;68825;51.978;5.654;2023-09-19T07:28:41;5.5;5.1;4.1;2.7;;;;2.0;57.0;
79355;SPS30;68825;51.978;5.654;2023-09-19T07:31:10;5.7;5.2;4.2;2.9;;;;2.0;56.0;
79355;SPS30;68825;51.978;5.654;2023-09-19T07:33:40;4.6;4.2;3.5;2.5;;;;2.0;55.0;
79355;SPS30;68825;51.978;5.654;2023-09-19T07:36:11;4.6;4.3;3.6;2.6;;;;2.0;56.0;
79355;SPS30;68825;51.978;5.654;2023-09-19T07:38:42;4.3;4.0;3.3;2.4;;;;2.0;57.0;
79355;SPS30;68825;51.978;5.654;2023-09-19T07:41:14;4.5;4.2;3.5;2.5;;;;2.0;65.0;
79355;SPS30;68825;51.978;5.654;2023-09-19T07:43:43;5.6;5.1;4.1;2.8;;;;2.0;67.0;
79355;SPS30;68825;51.978;5.654;2023-09-19T07:46:13;6.1;5.6;4.5;3.1;;;;2.0;66.0;
79355;SPS30;68825;51.978;5.654;2023-09-19T07:48:44;4.6;4.2;3.5;2.4;;;;2.0;65.0;
79355;SPS30;68825;51.978;5.654;2023-09-19T07:51:15;4.2;3.9;3.2;2.3;;;;2.0;64.0;
79355;SPS30;68825;51.978;5.654;2023-09-19T07:53:46;5.0;4.6;3.8;2.7;;;;2.0;64.0;
79355;SPS30;68825;51.978;5.654;2023-09-19T07:56:18;4.8;4.4;3.6;2.5;;;;2.0;64.0;
79355;SPS30;68825;51.978;5.654;2023-09-19T07:58:48;4.5;4.2;3.5;2.6;;;;2.0;68.0;
79355;SPS30;68825;51.978;5.654;2023-09-19T08:01:18;4.9;4.5;3.8;2.7;;;;2.0;71.0;
79355;SPS30;68825;51.978;5.654;2023-09-19T08:03:53;5.2;4.8;3.8;2.6;;;;2.0;71.0;
79355;SPS30;68825;51.978;5.654;2023-09-19T08:06:22;5.7;5.2;4.2;2.8;;;;1.0;71.0;
79355;SPS30;68825;51.978;5.654;2023-09-19T08:08:56;4.9;4.5;3.6;2.4;;;;1.0;77.0;
79355;SPS30;68825;51.978;5.654;2023-09-19T08:11:27;4.4;4.0;3.2;2.2;;;;1.0;76.0;
79355;SPS30;68825;51.978;5.654;2023-09-19T08:13:57;4.3;4.0;3.3;2.3;;;;1.0;76.0;
79355;SPS30;68825;51.978;5.654;2023-09-19T08:16:26;5.0;4.6;3.8;2.6;;;;1.0;77.0;
79355;SPS30;68825;51.978;5.654;2023-09-19T08:18:55;5.4;4.9;3.9;2.6;;;;1.0;77.0;
79355;SPS30;68825;51.978;5.654;2023-09-19T08:21:26;5.6;5.1;4.1;2.7;;;;1.0;79.0;
79355;SPS30;68825;51.978;5.654;2023-09-19T08:23:56;5.4;4.9;3.9;2.6;;;;1.0;73.0;
79355;SPS30;68825;51.978;5.654;2023-09-19T08:26:25;5.9;5.5;4.4;3.0;;;;1.0;78.0;
79355;SPS30;68825;51.978;5.654;2023-09-19T08:28:53;6.1;5.6;4.5;3.1;;;;1.0;86.0;
79355;SPS30;68825;51.978;5.654;2023-09-19T08:31:22;6.1;5.5;4.4;2.8;;;;1.0;82.0;
79355;SPS30;68825;51.978;5.654;2023-09-19T08:33:51;6.1;5.6;4.4;2.8;;;;1.0;80.0;
79355;SPS30;68825;51.978;5.654;2023-09-19T08:36:22;5.4;4.9;3.9;2.5;;;;1.0;80.0;
79355;SPS30;68825;51.978;5.654;2023-09-19T08:38:51;5.4;4.9;3.9;2.5;;;;1.0;81.0;
79355;SPS30;68825;51.978;5.654;2023-09-19T08:41:19;5.5;5.0;4.0;2.6;;;;1.0;80.0;
79355;SPS30;68825;51.978;5.654;2023-09-19T08:43:48;4.6;4.2;3.3;2.2;;;;1.0;76.0;
79355;SPS30;68825;51.978;5.654;2023-09-19T08:46:19;5.9;5.4;4.3;2.9;;;;1.0;84.0;
79355;SPS30;68825;51.978;5.654;2023-09-19T08:48:57;5.2;4.8;3.9;2.7;;;;1.0;76.0;
79355;SPS30;68825;51.978;5.654;2023-09-19T08:51:33;5.5;5.0;4.0;2.7;;;;1.0;76.0;
79355;SPS30;68825;51.978;5.654;2023-09-19T08:54:16;5.0;4.6;3.9;2.8;;;;1.0;81.0;
79355;SPS30;68825;51.978;5.654;2023-09-19T08:56:52;5.0;4.6;3.9;2.9;;;;1.0;81.0;
79355;SPS30;68825;51.978;5.654;2023-09-19T08:59:23;4.3;4.0;3.4;2.5;;;;1.0;81.0;
79355;SPS30;68825;51.978;5.654;2023-09-19T09:01:55;4.8;4.4;3.6;2.6;;;;1.0;80.0;
79355;SPS30;68825;51.978;5.654;2023-09-19T09:04:25;5.0;4.6;3.9;2.8;;;;1.0;79.0;
79355;SPS30;68825;51.978;5.654;2023-09-19T09:06:55;4.5;4.2;3.5;2.5;;;;1.0;76.0;
79355;SPS30;68825;51.978;5.654;2023-09-19T09:09:26;5.4;5.0;4.0;2.8;;;;1.0;87.0;
79355;SPS30;68825;51.978;5.654;2023-09-19T09:11:56;5.2;4.8;3.9;2.7;;;;1.0;91.0;
79355;SPS30;68825;51.978;5.654;2023-09-19T09:14:28;5.3;4.9;4.0;2.7;;;;1.0;88.0;
79355;SPS30;68825;51.978;5.654;2023-09-19T09:16:59;4.3;3.9;3.3;2.3;;;;1.0;85.0;
79355;SPS30;68825;51.978;5.654;2023-09-19T09:19:29;5.4;5.0;4.1;2.9;;;;1.0;92.0;
79355;SPS30;68825;51.978;5.654;2023-09-19T09:22:07;4.8;4.4;3.6;2.6;;;;1.0;84.0;
79355;SPS30;68825;51.978;5.654;2023-09-19T09:24:37;4.3;4.0;3.3;2.4;;;;1.0;78.0;
79355;SPS30;68825;51.978;5.654;2023-09-19T09:27:11;4.4;4.1;3.4;2.4;;;;1.0;71.0;
79355;SPS30;68825;51.978;5.654;2023-09-19T09:29:45;4.7;4.3;3.6;2.6;;;;1.0;59.0;
79355;SPS30;68825;51.978;5.654;2023-09-19T09:32:20;4.1;3.8;3.1;2.1;;;;1.0;63.0;
79355;SPS30;68825;51.978;5.654;2023-09-19T09:34:51;4.1;3.8;3.1;2.2;;;;1.0;66.0;
79355;SPS30;68825;51.978;5.654;2023-09-19T09:37:21;3.8;3.6;3.0;2.2;;;;1.0;67.0;
79355;SPS30;68825;51.978;5.654;2023-09-19T09:39:53;3.7;3.5;3.0;2.2;;;;1.0;66.0;
79355;SPS30;68825;51.978;5.654;2023-09-19T09:42:31;3.8;3.5;3.0;2.2;;;;1.0;76.0;
79355;SPS30;68825;51.978;5.654;2023-09-19T09:45:14;4.3;4.0;3.4;2.4;;;;1.0;73.0;
79355;SPS30;68825;51.978;5.654;2023-09-19T09:47:49;4.2;3.9;3.3;2.4;;;;1.0;66.0;
79355;SPS30;68825;51.978;5.654;2023-09-19T09:50:30;4.6;4.3;3.6;2.6;;;;1.0;66.0;
79355;SPS30;68825;51.978;5.654;2023-09-19T09:53:21;5.4;4.9;4.0;2.7;;;;1.0;66.0;
79355;SPS30;68825;51.978;5.654;2023-09-19T09:56:02;4.6;4.2;3.5;2.5;;;;1.0;67.0;
79355;SPS30;68825;51.978;5.654;2023-09-19T09:58:34;4.5;4.2;3.5;2.5;;;;1.0;76.0;
79355;SPS30;68825;51.978;5.654;2023-09-19T10:01:06;5.7;5.2;4.2;2.9;;;;1.0;77.0;
79355;SPS30;68825;51.978;5.654;2023-09-19T10:03:41;5.7;5.3;4.3;2.9;;;;1.0;83.0;
79355;SPS30;68825;51.978;5.654;2023-09-19T10:06:14;5.1;4.6;3.7;2.4;;;;1.0;85.0;
79355;SPS30;68825;51.978;5.654;2023-09-19T10:09:00;5.3;4.8;3.9;2.7;;;;1.0;82.0;
79355;SPS30;68825;51.978;5.654;2023-09-19T10:11:35;4.1;3.8;3.1;2.1;;;;1.0;71.0;
79355;SPS30;68825;51.978;5.654;2023-09-19T10:14:09;4.5;4.1;3.4;2.3;;;;1.0;72.0;
79355;SPS30;68825;51.978;5.654;2023-09-19T10:16:44;4.6;4.2;3.4;2.2;;;;1.0;72.0;
79355;SPS30;68825;51.978;5.654;2023-09-19T10:19:18;4.7;4.3;3.5;2.4;;;;1.0;80.0;
79355;SPS30;68825;51.978;5.654;2023-09-19T10:21:51;4.7;4.4;3.6;2.5;;;;1.0;89.0;
79355;SPS30;68825;51.978;5.654;2023-09-19T10:24:23;4.4;4.1;3.4;2.3;;;;1.0;101.0;
79355;SPS30;68825;51.978;5.654;2023-09-19T10:26:55;5.7;5.2;4.2;2.9;;;;1.0;98.0;
79355;SPS30;68825;51.978;5.654;2023-09-19T10:29:25;4.9;4.5;3.6;2.4;;;;1.0;100.0;
79355;SPS30;68825;51.978;5.654;2023-09-19T10:32:02;4.0;3.7;3.0;2.1;;;;1.0;99.0;
79355;SPS30;68825;51.978;5.654;2023-09-19T10:34:35;4.3;4.0;3.3;2.4;;;;1.0;100.0;
79355;SPS30;68825;51.978;5.654;2023-09-19T10:37:07;4.8;4.4;3.7;2.7;;;;1.0;94.0;
79355;SPS30;68825;51.978;5.654;2023-09-19T10:39:44;4.2;4.0;3.3;2.5;;;;1.0;88.0;
79355;SPS30;68825;51.978;5.654;2023-09-19T10:42:16;3.7;3.5;2.9;2.0;;;;1.0;90.0;
79355;SPS30;68825;51.978;5.654;2023-09-19T10:44:50;3.7;3.4;2.8;2.0;;;;1.0;88.0;
79355;SPS30;68825;51.978;5.654;2023-09-19T10:47:21;4.1;3.8;3.2;2.4;;;;1.0;92.0;
79355;SPS30;68825;51.978;5.654;2023-09-19T10:49:51;4.5;4.2;3.6;2.7;;;;1.0;105.0;
79355;SPS30;68825;51.978;5.654;2023-09-19T10:52:20;4.2;4.0;3.4;2.5;;;;1.0;103.0;
79355;SPS30;68825;51.978;5.654;2023-09-19T10:54:53;4.4;4.1;3.5;2.6;;;;1.0;102.0;
79355;SPS30;68825;51.978;5.654;2023-09-19T10:57:27;4.3;4.0;3.5;2.6;;;;1.0;102.0;
79355;SPS30;68825;51.978;5.654;2023-09-19T11:00:06;4.2;4.0;3.5;2.7;;;;1.0;102.0;
79355;SPS30;68825;51.978;5.654;2023-09-19T11:03:18;3.6;3.4;2.9;2.3;;;;1.0;101.0;
79355;SPS30;68825;51.978;5.654;2023-09-19T11:06:02;3.5;3.3;2.9;2.2;;;;1.0;101.0;
79355;SPS30;68825;51.978;5.654;2023-09-19T11:08:33;3.0;2.9;2.6;2.1;;;;1.0;100.0;
79355;SPS30;68825;51.978;5.654;2023-09-19T11:12:12;3.3;3.1;2.8;2.2;;;;1.0;136.0;
79355;SPS30;68825;51.978;5.654;2023-09-19T11:14:46;3.5;3.3;2.9;2.3;;;;1.0;131.0;
79355;SPS30;68825;51.978;5.654;2023-09-19T11:22:10;2.7;2.5;2.2;1.8;;;;1.0;129.0;
79355;SPS30;68825;51.978;5.654;2023-09-19T11:24:38;3.8;3.6;3.2;2.5;;;;1.0;126.0;
79355;SPS30;68825;51.978;5.654;2023-09-19T11:27:11;3.3;3.1;2.7;2.2;;;;1.0;119.0;
79355;SPS30;68825;51.978;5.654;2023-09-19T11:29:43;3.9;3.7;3.2;2.5;;;;1.0;131.0;
79355;SPS30;68825;51.978;5.654;2023-09-19T11:32:13;3.5;3.3;2.9;2.2;;;;1.0;128.0;
79355;SPS30;68825;51.978;5.654;2023-09-19T11:34:49;4.0;3.8;3.2;2.4;;;;1.0;129.0;
79355;SPS30;68825;51.978;5.654;2023-09-19T11:47:07;3.3;3.1;2.7;2.1;;;;1.0;134.0;
79355;SPS30;68825;51.978;5.654;2023-09-19T11:49:40;2.3;2.2;1.9;1.5;;;;1.0;133.0;
79355;SPS30;68825;51.978;5.654;2023-09-19T11:52:09;2.0;1.8;1.6;1.2;;;;1.0;130.0;
79355;SPS30;68825;51.978;5.654;2023-09-19T11:54:40;2.5;2.3;2.0;1.5;;;;1.0;122.0;
79355;SPS30;68825;51.978;5.654;2023-09-19T11:57:11;3.2;3.0;2.6;1.9;;;;1.0;123.0;
79355;SPS30;68825;51.978;5.654;2023-09-19T11:59:51;3.4;3.2;2.7;2.0;;;;1.0;134.0;
79355;SPS30;68825;51.978;5.654;2023-09-19T12:02:30;3.7;3.4;2.9;2.1;;;;1.0;145.0;
79355;SPS30;68825;51.978;5.654;2023-09-19T12:05:02;3.1;2.9;2.5;1.9;;;;1.0;153.0;
79355;SPS30;68825;51.978;5.654;2023-09-19T12:07:31;3.6;3.4;2.9;2.2;;;;1.0;155.0;
79355;SPS30;68825;51.978;5.654;2023-09-19T12:10:14;2.8;2.7;2.3;1.8;;;;1.0;154.0;
79355;SPS30;68825;51.978;5.654;2023-09-19T12:12:48;2.2;2.1;1.8;1.4;;;;1.0;149.0;
79355;SPS30;68825;51.978;5.654;2023-09-19T12:15:25;2.3;2.2;1.9;1.5;;;;1.0;146.0;
79355;SPS30;68825;51.978;5.654;2023-09-19T12:18:01;2.5;2.4;2.0;1.6;;;;1.0;161.0;
79355;SPS30;68825;51.978;5.654;2023-09-19T12:20:43;2.5;2.3;2.0;1.6;;;;1.0;142.0;
79355;SPS30;68825;51.978;5.654;2023-09-19T12:23:14;2.2;2.1;1.8;1.4;;;;1.0;134.0;
79355;SPS30;68825;51.978;5.654;2023-09-19T12:25:44;2.3;2.2;1.9;1.5;;;;1.0;138.0;
79355;SPS30;68825;51.978;5.654;2023-09-19T12:28:14;2.3;2.2;1.9;1.5;;;;1.0;140.0;
79355;SPS30;68825;51.978;5.654;2023-09-19T12:30:43;2.4;2.3;2.0;1.6;;;;1.0;142.0;
79355;SPS30;68825;51.978;5.654;2023-09-19T12:33:17;1.9;1.8;1.5;1.2;;;;1.0;123.0;
79355;SPS30;68825;51.978;5.654;2023-09-19T12:35:51;2.4;2.3;2.0;1.6;;;;1.0;121.0;
79355;SPS30;68825;51.978;5.654;2023-09-19T12:38:25;2.1;2.0;1.7;1.3;;;;1.0;125.0;
79355;SPS30;68825;51.978;5.654;2023-09-19T12:40:58;2.5;2.3;2.0;1.5;;;;1.0;125.0;
79355;SPS30;68825;51.978;5.654;2023-09-19T12:43:28;2.0;1.9;1.6;1.2;;;;1.0;117.0;
79355;SPS30;68825;51.978;5.654;2023-09-19T12:46:02;2.2;2.1;1.8;1.4;;;;1.0;121.0;
79355;SPS30;68825;51.978;5.654;2023-09-19T12:48:31;2.1;2.0;1.8;1.4;;;;1.0;137.0;